< Typhoon 197908 1979 Season Typhoon 197910 >
Typhoon 197909 (HOPE)
General InformationTrack Information on Google MapsDetailed Wind InformationList of All Images || Disaster Info.ResourceGoogle EarthGE AnimationAtom FeedGeoJSON
Detalied Best Track (Time Zone = UTC)
Year Month Day Hour Lat. Long. Pressure (hPa) Wind (kt) Class Image Chart
1979 7 25 12 11.3 144.0 1006 0 2 Image Chart
1979 7 25 18 11.2 143.7 1002 0 2 Image Chart
1979 7 26 00 11.1 142.6 1002 0 2 Image Chart
1979 7 26 06 11.1 141.6 1002 0 2 Image Chart
1979 7 26 12 12.0 140.8 1002 0 2 Image Chart
1979 7 26 18 12.4 140.3 1002 0 2 Image Chart
1979 7 27 00 13.0 139.7 1002 0 2 Image Chart
1979 7 27 06 13.7 139.2 1002 0 2 Image Chart
1979 7 27 12 14.5 138.6 1000 0 2 Image Chart
1979 7 27 18 15.2 138.1 1000 0 2 Image Chart
1979 7 28 00 16.2 137.8 998 0 2 Image Chart
1979 7 28 06 16.4 137.2 998 0 2 Image Chart
1979 7 28 12 16.5 136.6 998 0 2 Image Chart
1979 7 28 18 16.6 136.1 998 0 2 Image Chart
1979 7 29 00 16.7 135.5 994 35 3 Image Chart
1979 7 29 06 16.7 135.4 975 45 3 Image Chart
1979 7 29 12 16.7 134.7 970 65 5 Image Chart
1979 7 29 18 16.7 134.0 965 70 5 Image Chart
1979 7 30 00 16.9 133.2 955 75 5 Image Chart
1979 7 30 06 17.1 132.7 950 80 5 Image Chart
1979 7 30 12 17.6 131.6 940 80 5 Image Chart
1979 7 30 18 18.0 130.7 935 90 5 Image Chart
1979 7 31 00 18.5 129.4 920 90 5 Image Chart
1979 7 31 06 19.2 127.8 905 90 5 Image Chart
1979 7 31 12 19.6 126.2 900 110 5 Image Chart
1979 7 31 18 20.1 124.7 900 110 5 Image Chart
1979 8 1 00 20.7 123.2 905 110 5 Image Chart
1979 8 1 06 20.9 121.6 915 105 5 Image Chart
1979 8 1 12 21.5 119.9 925 100 5 Image Chart
1979 8 1 18 21.8 118.1 930 95 5 Image Chart
1979 8 2 00 22.3 116.5 940 90 5 Image Chart
1979 8 2 06 22.5 114.3 960 80 5 Image Chart
1979 8 2 12 22.6 112.1 970 70 5 Image Chart
1979 8 2 18 22.7 110.2 975 60 4 Image Chart
1979 8 3 00 22.0 108.0 990 35 3 Image Chart
1979 8 3 06 21.0 106.4 994 0 2 Image Chart
1979 8 3 12 20.5 105.0 994 0 2 Image Chart
1979 8 3 18 20.1 104.0 996 0 2 Image Chart
1979 8 4 00 19.8 102.5 1000 0 2 Image Chart
1979 8 4 06 19.5 100.0 1000 0 2 Image Chart
1979 8 4 12 19.0 99.0 1000 0 2 Image Chart
Japan Meteorological Agency Best Track Data | Correction Date : 1992-10-21
< Typhoon 197908 1979 Season Typhoon 197910 >

Help